sensor_id;sensor_type;location;lat;lon;timestamp;P1;durP1;ratioP1;P2;durP2;ratioP2
19280;SDS011;9774;52.034;5.342;2022-12-07T00:01:53;4.75;;;3.15;;
19280;SDS011;9774;52.034;5.342;2022-12-07T00:04:21;5.22;;;3.00;;
19280;SDS011;9774;52.034;5.342;2022-12-07T00:06:50;4.03;;;3.05;;
19280;SDS011;9774;52.034;5.342;2022-12-07T00:09:18;3.42;;;2.53;;
19280;SDS011;9774;52.034;5.342;2022-12-07T00:11:48;4.10;;;3.20;;
19280;SDS011;9774;52.034;5.342;2022-12-07T00:14:17;5.13;;;3.45;;
19280;SDS011;9774;52.034;5.342;2022-12-07T00:16:45;5.03;;;3.55;;
19280;SDS011;9774;52.034;5.342;2022-12-07T00:19:16;3.88;;;3.13;;
19280;SDS011;9774;52.034;5.342;2022-12-07T00:21:44;5.10;;;3.28;;
19280;SDS011;9774;52.034;5.342;2022-12-07T00:24:11;3.90;;;3.22;;
19280;SDS011;9774;52.034;5.342;2022-12-07T00:26:39;3.88;;;2.95;;
19280;SDS011;9774;52.034;5.342;2022-12-07T00:29:09;4.60;;;3.33;;
19280;SDS011;9774;52.034;5.342;2022-12-07T00:31:43;5.10;;;3.10;;
19280;SDS011;9774;52.034;5.342;2022-12-07T00:34:12;3.90;;;2.95;;
19280;SDS011;9774;52.034;5.342;2022-12-07T00:36:40;4.38;;;3.13;;
19280;SDS011;9774;52.034;5.342;2022-12-07T00:39:07;3.85;;;3.13;;
19280;SDS011;9774;52.034;5.342;2022-12-07T00:41:34;4.72;;;3.30;;
19280;SDS011;9774;52.034;5.342;2022-12-07T00:44:01;4.35;;;3.40;;
19280;SDS011;9774;52.034;5.342;2022-12-07T00:46:29;3.90;;;3.20;;
19280;SDS011;9774;52.034;5.342;2022-12-07T00:48:58;3.85;;;3.13;;
19280;SDS011;9774;52.034;5.342;2022-12-07T00:51:25;4.18;;;3.08;;
19280;SDS011;9774;52.034;5.342;2022-12-07T00:53:53;3.45;;;2.78;;
19280;SDS011;9774;52.034;5.342;2022-12-07T00:56:20;3.75;;;2.70;;
19280;SDS011;9774;52.034;5.342;2022-12-07T00:58:49;3.88;;;3.22;;
19280;SDS011;9774;52.034;5.342;2022-12-07T01:01:18;3.88;;;2.95;;
19280;SDS011;9774;52.034;5.342;2022-12-07T01:03:45;3.13;;;2.83;;
19280;SDS011;9774;52.034;5.342;2022-12-07T01:06:15;4.18;;;3.28;;
19280;SDS011;9774;52.034;5.342;2022-12-07T01:08:43;4.35;;;2.90;;
19280;SDS011;9774;52.034;5.342;2022-12-07T01:11:12;3.80;;;2.92;;
19280;SDS011;9774;52.034;5.342;2022-12-07T01:13:43;3.53;;;3.00;;
19280;SDS011;9774;52.034;5.342;2022-12-07T01:16:11;3.00;;;2.70;;
19280;SDS011;9774;52.034;5.342;2022-12-07T01:18:40;3.22;;;2.80;;
19280;SDS011;9774;52.034;5.342;2022-12-07T01:21:09;3.30;;;2.67;;
19280;SDS011;9774;52.034;5.342;2022-12-07T01:23:40;4.25;;;3.10;;
19280;SDS011;9774;52.034;5.342;2022-12-07T01:26:09;3.58;;;3.10;;
19280;SDS011;9774;52.034;5.342;2022-12-07T01:28:38;3.80;;;2.92;;
19280;SDS011;9774;52.034;5.342;2022-12-07T01:31:06;4.28;;;3.75;;
19280;SDS011;9774;52.034;5.342;2022-12-07T01:33:37;3.30;;;2.92;;
19280;SDS011;9774;52.034;5.342;2022-12-07T01:36:06;4.32;;;3.25;;
19280;SDS011;9774;52.034;5.342;2022-12-07T01:38:34;4.22;;;2.70;;
19280;SDS011;9774;52.034;5.342;2022-12-07T01:41:03;3.88;;;3.05;;
19280;SDS011;9774;52.034;5.342;2022-12-07T01:43:31;4.18;;;3.05;;
19280;SDS011;9774;52.034;5.342;2022-12-07T01:46:00;3.72;;;3.03;;
19280;SDS011;9774;52.034;5.342;2022-12-07T01:48:28;3.00;;;2.45;;
19280;SDS011;9774;52.034;5.342;2022-12-07T01:50:59;3.13;;;2.60;;
19280;SDS011;9774;52.034;5.342;2022-12-07T01:53:30;2.65;;;2.40;;
19280;SDS011;9774;52.034;5.342;2022-12-07T01:56:01;2.90;;;2.35;;
19280;SDS011;9774;52.034;5.342;2022-12-07T01:58:31;2.50;;;2.25;;
19280;SDS011;9774;52.034;5.342;2022-12-07T02:00:58;2.80;;;2.50;;
19280;SDS011;9774;52.034;5.342;2022-12-07T02:03:27;3.97;;;2.53;;
19280;SDS011;9774;52.034;5.342;2022-12-07T02:05:57;2.78;;;2.38;;
19280;SDS011;9774;52.034;5.342;2022-12-07T02:08:26;4.88;;;2.92;;
19280;SDS011;9774;52.034;5.342;2022-12-07T02:10:53;2.15;;;1.95;;
19280;SDS011;9774;52.034;5.342;2022-12-07T02:13:23;4.40;;;2.50;;
19280;SDS011;9774;52.034;5.342;2022-12-07T02:16:03;2.83;;;2.33;;
19280;SDS011;9774;52.034;5.342;2022-12-07T02:18:44;2.20;;;2.00;;
19280;SDS011;9774;52.034;5.342;2022-12-07T02:21:20;3.08;;;2.03;;
19280;SDS011;9774;52.034;5.342;2022-12-07T02:24:02;2.05;;;1.60;;
19280;SDS011;9774;52.034;5.342;2022-12-07T02:26:47;2.65;;;2.05;;
19280;SDS011;9774;52.034;5.342;2022-12-07T02:29:25;3.25;;;2.25;;
19280;SDS011;9774;52.034;5.342;2022-12-07T02:31:56;2.65;;;2.08;;
19280;SDS011;9774;52.034;5.342;2022-12-07T02:34:31;4.13;;;2.10;;
19280;SDS011;9774;52.034;5.342;2022-12-07T02:37:03;2.30;;;2.00;;
19280;SDS011;9774;52.034;5.342;2022-12-07T02:39:40;2.38;;;1.98;;
19280;SDS011;9774;52.034;5.342;2022-12-07T02:42:12;2.53;;;2.20;;
19280;SDS011;9774;52.034;5.342;2022-12-07T02:44:44;2.53;;;2.17;;
19280;SDS011;9774;52.034;5.342;2022-12-07T02:47:14;2.47;;;1.95;;
19280;SDS011;9774;52.034;5.342;2022-12-07T02:49:43;2.88;;;2.03;;
19280;SDS011;9774;52.034;5.342;2022-12-07T02:52:11;3.10;;;2.30;;
19280;SDS011;9774;52.034;5.342;2022-12-07T02:54:38;2.38;;;1.85;;
19280;SDS011;9774;52.034;5.342;2022-12-07T02:57:13;2.90;;;1.92;;
19280;SDS011;9774;52.034;5.342;2022-12-07T02:59:57;2.92;;;1.98;;
19280;SDS011;9774;52.034;5.342;2022-12-07T03:02:31;2.05;;;1.83;;
19280;SDS011;9774;52.034;5.342;2022-12-07T03:05:11;2.80;;;1.88;;
19280;SDS011;9774;52.034;5.342;2022-12-07T03:07:48;2.05;;;1.85;;
19280;SDS011;9774;52.034;5.342;2022-12-07T03:10:24;4.47;;;2.42;;
19280;SDS011;9774;52.034;5.342;2022-12-07T03:13:01;3.00;;;1.95;;
19280;SDS011;9774;52.034;5.342;2022-12-07T03:15:35;2.50;;;1.88;;
19280;SDS011;9774;52.034;5.342;2022-12-07T03:18:09;1.92;;;1.60;;
19280;SDS011;9774;52.034;5.342;2022-12-07T03:20:39;2.22;;;2.03;;
19280;SDS011;9774;52.034;5.342;2022-12-07T03:23:10;3.90;;;2.25;;
19280;SDS011;9774;52.034;5.342;2022-12-07T03:25:41;2.65;;;1.80;;
19280;SDS011;9774;52.034;5.342;2022-12-07T03:28:13;2.13;;;1.60;;
19280;SDS011;9774;52.034;5.342;2022-12-07T03:30:46;3.05;;;1.85;;
19280;SDS011;9774;52.034;5.342;2022-12-07T03:33:20;2.05;;;1.85;;
19280;SDS011;9774;52.034;5.342;2022-12-07T03:35:51;2.10;;;1.80;;
19280;SDS011;9774;52.034;5.342;2022-12-07T03:38:25;4.57;;;2.20;;
19280;SDS011;9774;52.034;5.342;2022-12-07T03:40:58;3.30;;;2.10;;
19280;SDS011;9774;52.034;5.342;2022-12-07T03:43:29;1.90;;;1.73;;
19280;SDS011;9774;52.034;5.342;2022-12-07T03:46:00;1.80;;;1.65;;
19280;SDS011;9774;52.034;5.342;2022-12-07T03:48:41;3.00;;;2.00;;
19280;SDS011;9774;52.034;5.342;2022-12-07T03:51:14;2.25;;;1.70;;
19280;SDS011;9774;52.034;5.342;2022-12-07T03:53:50;2.05;;;1.67;;
19280;SDS011;9774;52.034;5.342;2022-12-07T03:56:21;2.20;;;1.88;;
19280;SDS011;9774;52.034;5.342;2022-12-07T03:58:49;2.38;;;2.13;;
19280;SDS011;9774;52.034;5.342;2022-12-07T04:01:19;3.70;;;2.15;;
19280;SDS011;9774;52.034;5.342;2022-12-07T04:03:48;1.95;;;1.65;;
19280;SDS011;9774;52.034;5.342;2022-12-07T04:06:15;1.90;;;1.70;;
19280;SDS011;9774;52.034;5.342;2022-12-07T04:08:43;3.25;;;2.40;;
19280;SDS011;9774;52.034;5.342;2022-12-07T04:11:10;2.55;;;2.15;;
19280;SDS011;9774;52.034;5.342;2022-12-07T04:13:37;2.53;;;2.15;;
19280;SDS011;9774;52.034;5.342;2022-12-07T04:16:20;2.75;;;2.17;;
19280;SDS011;9774;52.034;5.342;2022-12-07T04:18:47;1.85;;;1.70;;
19280;SDS011;9774;52.034;5.342;2022-12-07T04:21:15;3.63;;;2.28;;
19280;SDS011;9774;52.034;5.342;2022-12-07T04:23:42;2.40;;;2.20;;
19280;SDS011;9774;52.034;5.342;2022-12-07T04:26:09;2.22;;;1.90;;
19280;SDS011;9774;52.034;5.342;2022-12-07T04:28:36;1.70;;;1.60;;
19280;SDS011;9774;52.034;5.342;2022-12-07T04:31:04;2.85;;;1.65;;
19280;SDS011;9774;52.034;5.342;2022-12-07T04:33:33;4.63;;;1.77;;
19280;SDS011;9774;52.034;5.342;2022-12-07T04:36:01;3.83;;;2.28;;
19280;SDS011;9774;52.034;5.342;2022-12-07T04:38:28;2.30;;;1.67;;
19280;SDS011;9774;52.034;5.342;2022-12-07T04:40:55;3.13;;;2.00;;
19280;SDS011;9774;52.034;5.342;2022-12-07T04:43:23;2.83;;;1.77;;
19280;SDS011;9774;52.034;5.342;2022-12-07T04:45:50;2.53;;;1.95;;
19280;SDS011;9774;52.034;5.342;2022-12-07T04:48:17;3.10;;;1.98;;
19280;SDS011;9774;52.034;5.342;2022-12-07T04:50:48;1.85;;;1.60;;
19280;SDS011;9774;52.034;5.342;2022-12-07T04:53:16;2.05;;;1.63;;
19280;SDS011;9774;52.034;5.342;2022-12-07T04:55:44;2.70;;;2.00;;
19280;SDS011;9774;52.034;5.342;2022-12-07T04:58:11;1.73;;;1.50;;
19280;SDS011;9774;52.034;5.342;2022-12-07T05:00:40;3.10;;;2.22;;
19280;SDS011;9774;52.034;5.342;2022-12-07T05:03:08;1.67;;;1.38;;
19280;SDS011;9774;52.034;5.342;2022-12-07T05:05:35;1.67;;;1.15;;
19280;SDS011;9774;52.034;5.342;2022-12-07T05:08:07;4.68;;;1.40;;
19280;SDS011;9774;52.034;5.342;2022-12-07T05:10:34;2.17;;;1.40;;
19280;SDS011;9774;52.034;5.342;2022-12-07T05:13:01;3.15;;;1.23;;
19280;SDS011;9774;52.034;5.342;2022-12-07T05:15:29;1.77;;;1.15;;
19280;SDS011;9774;52.034;5.342;2022-12-07T05:17:56;3.08;;;1.60;;
19280;SDS011;9774;52.034;5.342;2022-12-07T05:20:23;1.95;;;1.35;;
19280;SDS011;9774;52.034;5.342;2022-12-07T05:22:51;4.72;;;1.90;;
19280;SDS011;9774;52.034;5.342;2022-12-07T05:25:19;3.08;;;1.42;;
19280;SDS011;9774;52.034;5.342;2022-12-07T05:27:46;1.90;;;1.17;;
19280;SDS011;9774;52.034;5.342;2022-12-07T05:30:14;1.83;;;1.42;;
19280;SDS011;9774;52.034;5.342;2022-12-07T05:32:41;1.70;;;1.27;;
19280;SDS011;9774;52.034;5.342;2022-12-07T05:35:09;2.05;;;1.08;;
19280;SDS011;9774;52.034;5.342;2022-12-07T05:37:37;2.00;;;1.50;;
19280;SDS011;9774;52.034;5.342;2022-12-07T05:40:04;1.77;;;1.15;;
19280;SDS011;9774;52.034;5.342;2022-12-07T05:42:34;2.35;;;1.60;;
19280;SDS011;9774;52.034;5.342;2022-12-07T05:45:01;2.80;;;1.23;;
19280;SDS011;9774;52.034;5.342;2022-12-07T05:47:29;1.48;;;1.10;;
19280;SDS011;9774;52.034;5.342;2022-12-07T05:49:57;1.90;;;1.42;;
19280;SDS011;9774;52.034;5.342;2022-12-07T05:52:26;1.77;;;1.38;;
19280;SDS011;9774;52.034;5.342;2022-12-07T05:54:53;3.28;;;1.20;;
19280;SDS011;9774;52.034;5.342;2022-12-07T05:57:20;1.58;;;1.40;;
19280;SDS011;9774;52.034;5.342;2022-12-07T05:59:49;2.15;;;1.38;;
19280;SDS011;9774;52.034;5.342;2022-12-07T06:02:16;2.35;;;1.23;;
19280;SDS011;9774;52.034;5.342;2022-12-07T06:04:44;1.85;;;1.23;;
19280;SDS011;9774;52.034;5.342;2022-12-07T06:07:13;2.25;;;0.88;;
19280;SDS011;9774;52.034;5.342;2022-12-07T06:09:42;2.30;;;1.00;;
19280;SDS011;9774;52.034;5.342;2022-12-07T06:12:09;3.53;;;1.30;;
19280;SDS011;9774;52.034;5.342;2022-12-07T06:15:07;1.92;;;0.98;;
19280;SDS011;9774;52.034;5.342;2022-12-07T06:17:35;1.92;;;1.00;;
19280;SDS011;9774;52.034;5.342;2022-12-07T06:20:03;6.00;;;1.40;;
19280;SDS011;9774;52.034;5.342;2022-12-07T06:22:31;1.48;;;1.05;;
19280;SDS011;9774;52.034;5.342;2022-12-07T06:24:58;1.77;;;1.10;;
19280;SDS011;9774;52.034;5.342;2022-12-07T06:27:26;2.10;;;1.10;;
19280;SDS011;9774;52.034;5.342;2022-12-07T06:29:53;2.55;;;1.27;;
19280;SDS011;9774;52.034;5.342;2022-12-07T06:32:22;1.77;;;1.30;;
19280;SDS011;9774;52.034;5.342;2022-12-07T06:34:49;1.80;;;1.27;;
19280;SDS011;9774;52.034;5.342;2022-12-07T06:37:16;1.65;;;1.00;;
19280;SDS011;9774;52.034;5.342;2022-12-07T06:39:44;1.35;;;1.08;;
19280;SDS011;9774;52.034;5.342;2022-12-07T06:42:11;3.28;;;1.40;;
19280;SDS011;9774;52.034;5.342;2022-12-07T06:44:38;4.07;;;1.52;;
19280;SDS011;9774;52.034;5.342;2022-12-07T06:47:06;1.30;;;0.90;;
19280;SDS011;9774;52.034;5.342;2022-12-07T06:49:35;2.03;;;1.00;;
19280;SDS011;9774;52.034;5.342;2022-12-07T06:52:03;2.58;;;0.90;;
19280;SDS011;9774;52.034;5.342;2022-12-07T06:54:30;1.75;;;1.27;;
19280;SDS011;9774;52.034;5.342;2022-12-07T06:56:58;1.40;;;0.85;;
19280;SDS011;9774;52.034;5.342;2022-12-07T06:59:25;2.00;;;1.10;;
19280;SDS011;9774;52.034;5.342;2022-12-07T07:01:52;3.20;;;1.13;;
19280;SDS011;9774;52.034;5.342;2022-12-07T07:04:20;3.97;;;1.50;;
19280;SDS011;9774;52.034;5.342;2022-12-07T07:06:48;1.90;;;1.20;;
19280;SDS011;9774;52.034;5.342;2022-12-07T07:09:16;1.55;;;1.17;;
19280;SDS011;9774;52.034;5.342;2022-12-07T07:11:43;2.63;;;1.58;;
19280;SDS011;9774;52.034;5.342;2022-12-07T07:14:10;3.42;;;1.95;;
19280;SDS011;9774;52.034;5.342;2022-12-07T07:16:38;4.82;;;1.05;;
19280;SDS011;9774;52.034;5.342;2022-12-07T07:19:05;2.65;;;1.52;;
19280;SDS011;9774;52.034;5.342;2022-12-07T07:21:32;2.25;;;1.38;;
19280;SDS011;9774;52.034;5.342;2022-12-07T07:24:01;2.40;;;1.35;;
19280;SDS011;9774;52.034;5.342;2022-12-07T07:26:28;2.30;;;1.83;;
19280;SDS011;9774;52.034;5.342;2022-12-07T07:28:56;2.53;;;1.10;;
19280;SDS011;9774;52.034;5.342;2022-12-07T07:31:23;2.72;;;1.50;;
19280;SDS011;9774;52.034;5.342;2022-12-07T07:33:50;2.30;;;1.70;;
19280;SDS011;9774;52.034;5.342;2022-12-07T07:36:19;3.15;;;1.63;;
19280;SDS011;9774;52.034;5.342;2022-12-07T07:38:46;4.95;;;3.20;;
19280;SDS011;9774;52.034;5.342;2022-12-07T07:41:14;2.60;;;2.08;;
19280;SDS011;9774;52.034;5.342;2022-12-07T07:43:42;2.75;;;1.30;;
19280;SDS011;9774;52.034;5.342;2022-12-07T07:46:09;2.40;;;1.77;;
19280;SDS011;9774;52.034;5.342;2022-12-07T07:48:36;3.22;;;1.67;;
19280;SDS011;9774;52.034;5.342;2022-12-07T07:51:04;3.15;;;1.45;;
19280;SDS011;9774;52.034;5.342;2022-12-07T07:53:32;3.00;;;1.60;;
19280;SDS011;9774;52.034;5.342;2022-12-07T07:56:00;4.45;;;1.60;;
19280;SDS011;9774;52.034;5.342;2022-12-07T07:58:28;2.65;;;1.65;;
19280;SDS011;9774;52.034;5.342;2022-12-07T08:00:56;3.88;;;2.42;;
19280;SDS011;9774;52.034;5.342;2022-12-07T08:03:29;2.45;;;1.65;;
19280;SDS011;9774;52.034;5.342;2022-12-07T08:05:56;4.97;;;1.88;;
19280;SDS011;9774;52.034;5.342;2022-12-07T08:08:23;3.35;;;1.40;;
19280;SDS011;9774;52.034;5.342;2022-12-07T08:10:51;4.00;;;2.22;;
19280;SDS011;9774;52.034;5.342;2022-12-07T08:13:18;4.22;;;2.15;;
19280;SDS011;9774;52.034;5.342;2022-12-07T08:15:47;3.35;;;1.80;;
19280;SDS011;9774;52.034;5.342;2022-12-07T08:18:15;3.55;;;1.70;;
19280;SDS011;9774;52.034;5.342;2022-12-07T08:20:42;5.75;;;2.25;;
19280;SDS011;9774;52.034;5.342;2022-12-07T08:23:10;2.90;;;2.20;;
19280;SDS011;9774;52.034;5.342;2022-12-07T08:25:37;3.72;;;2.60;;
19280;SDS011;9774;52.034;5.342;2022-12-07T08:28:05;3.58;;;2.40;;
19280;SDS011;9774;52.034;5.342;2022-12-07T08:30:33;3.25;;;2.30;;
19280;SDS011;9774;52.034;5.342;2022-12-07T08:33:02;4.13;;;3.10;;
19280;SDS011;9774;52.034;5.342;2022-12-07T08:35:29;4.63;;;3.08;;
19280;SDS011;9774;52.034;5.342;2022-12-07T08:37:58;4.38;;;2.58;;
19280;SDS011;9774;52.034;5.342;2022-12-07T08:40:27;3.47;;;2.47;;
19280;SDS011;9774;52.034;5.342;2022-12-07T08:42:55;6.20;;;3.13;;
19280;SDS011;9774;52.034;5.342;2022-12-07T08:45:22;6.18;;;3.55;;
19280;SDS011;9774;52.034;5.342;2022-12-07T08:47:50;5.35;;;3.78;;
19280;SDS011;9774;52.034;5.342;2022-12-07T08:50:22;10.27;;;3.20;;
19280;SDS011;9774;52.034;5.342;2022-12-07T08:52:50;5.78;;;3.40;;
19280;SDS011;9774;52.034;5.342;2022-12-07T08:55:19;9.25;;;3.78;;
19280;SDS011;9774;52.034;5.342;2022-12-07T08:57:47;5.40;;;3.30;;
19280;SDS011;9774;52.034;5.342;2022-12-07T09:00:15;4.10;;;3.13;;
19280;SDS011;9774;52.034;5.342;2022-12-07T09:02:43;4.93;;;2.85;;
19280;SDS011;9774;52.034;5.342;2022-12-07T09:05:10;6.18;;;3.00;;
19280;SDS011;9774;52.034;5.342;2022-12-07T09:07:41;6.45;;;2.80;;
19280;SDS011;9774;52.034;5.342;2022-12-07T09:10:09;3.72;;;2.50;;
19280;SDS011;9774;52.034;5.342;2022-12-07T09:12:37;2.85;;;2.47;;
19280;SDS011;9774;52.034;5.342;2022-12-07T09:15:04;3.33;;;2.00;;
19280;SDS011;9774;52.034;5.342;2022-12-07T09:17:33;2.92;;;1.67;;
19280;SDS011;9774;52.034;5.342;2022-12-07T09:20:03;2.45;;;1.95;;
19280;SDS011;9774;52.034;5.342;2022-12-07T09:22:32;4.22;;;2.10;;
19280;SDS011;9774;52.034;5.342;2022-12-07T09:25:01;2.08;;;1.35;;
19280;SDS011;9774;52.034;5.342;2022-12-07T09:27:29;2.50;;;1.38;;
19280;SDS011;9774;52.034;5.342;2022-12-07T09:29:56;2.33;;;1.50;;
19280;SDS011;9774;52.034;5.342;2022-12-07T09:32:23;3.25;;;1.90;;
19280;SDS011;9774;52.034;5.342;2022-12-07T09:34:51;4.25;;;1.30;;
19280;SDS011;9774;52.034;5.342;2022-12-07T09:37:18;2.17;;;1.25;;
19280;SDS011;9774;52.034;5.342;2022-12-07T09:39:45;3.00;;;1.30;;
19280;SDS011;9774;52.034;5.342;2022-12-07T09:42:18;1.80;;;1.02;;
19280;SDS011;9774;52.034;5.342;2022-12-07T09:44:52;2.33;;;1.20;;
19280;SDS011;9774;52.034;5.342;2022-12-07T09:47:20;2.00;;;1.00;;
19280;SDS011;9774;52.034;5.342;2022-12-07T09:49:47;3.60;;;1.00;;
19280;SDS011;9774;52.034;5.342;2022-12-07T09:52:17;1.90;;;0.95;;
19280;SDS011;9774;52.034;5.342;2022-12-07T09:54:47;3.22;;;0.90;;
19280;SDS011;9774;52.034;5.342;2022-12-07T09:57:17;3.33;;;0.90;;
19280;SDS011;9774;52.034;5.342;2022-12-07T09:59:48;4.40;;;1.02;;
19280;SDS011;9774;52.034;5.342;2022-12-07T10:02:23;1.73;;;0.77;;
19280;SDS011;9774;52.034;5.342;2022-12-07T10:04:58;3.08;;;1.30;;
19280;SDS011;9774;52.034;5.342;2022-12-07T10:07:26;2.85;;;1.52;;
19280;SDS011;9774;52.034;5.342;2022-12-07T10:09:53;6.35;;;2.58;;
19280;SDS011;9774;52.034;5.342;2022-12-07T10:12:22;8.18;;;2.17;;
19280;SDS011;9774;52.034;5.342;2022-12-07T10:14:53;2.60;;;1.45;;
19280;SDS011;9774;52.034;5.342;2022-12-07T10:17:32;3.65;;;1.25;;
19280;SDS011;9774;52.034;5.342;2022-12-07T10:20:12;2.42;;;1.15;;
19280;SDS011;9774;52.034;5.342;2022-12-07T10:22:54;3.97;;;1.20;;
19280;SDS011;9774;52.034;5.342;2022-12-07T10:25:26;1.17;;;0.80;;
19280;SDS011;9774;52.034;5.342;2022-12-07T10:27:58;1.77;;;0.70;;
19280;SDS011;9774;52.034;5.342;2022-12-07T10:30:45;1.48;;;1.00;;
19280;SDS011;9774;52.034;5.342;2022-12-07T10:33:27;2.58;;;0.77;;
19280;SDS011;9774;52.034;5.342;2022-12-07T10:35:56;2.30;;;0.70;;
19280;SDS011;9774;52.034;5.342;2022-12-07T10:38:25;1.25;;;0.90;;
19280;SDS011;9774;52.034;5.342;2022-12-07T10:41:05;0.95;;;0.50;;
19280;SDS011;9774;52.034;5.342;2022-12-07T10:43:35;2.80;;;0.90;;
19280;SDS011;9774;52.034;5.342;2022-12-07T10:52:13;3.20;;;0.68;;
19280;SDS011;9774;52.034;5.342;2022-12-07T10:54:54;1.60;;;0.80;;
19280;SDS011;9774;52.034;5.342;2022-12-07T10:57:41;3.40;;;0.88;;
19280;SDS011;9774;52.034;5.342;2022-12-07T11:00:19;1.58;;;0.80;;
19280;SDS011;9774;52.034;5.342;2022-12-07T11:02:55;1.70;;;0.70;;
19280;SDS011;9774;52.034;5.342;2022-12-07T11:05:30;1.88;;;0.68;;
19280;SDS011;9774;52.034;5.342;2022-12-07T11:08:09;6.40;;;0.85;;
19280;SDS011;9774;52.034;5.342;2022-12-07T11:10:44;0.82;;;0.45;;
19280;SDS011;9774;52.034;5.342;2022-12-07T11:13:28;0.82;;;0.40;;
19280;SDS011;9774;52.034;5.342;2022-12-07T11:16:24;2.63;;;0.85;;
19280;SDS011;9774;52.034;5.342;2022-12-07T11:19:05;2.88;;;0.80;;
19280;SDS011;9774;52.034;5.342;2022-12-07T11:21:52;1.23;;;0.50;;
19280;SDS011;9774;52.034;5.342;2022-12-07T11:24:25;2.13;;;0.75;;
19280;SDS011;9774;52.034;5.342;2022-12-07T11:27:02;1.50;;;0.60;;
19280;SDS011;9774;52.034;5.342;2022-12-07T11:29:46;2.22;;;0.77;;
19280;SDS011;9774;52.034;5.342;2022-12-07T11:32:34;1.40;;;0.50;;
19280;SDS011;9774;52.034;5.342;2022-12-07T11:35:26;1.98;;;0.60;;
19280;SDS011;9774;52.034;5.342;2022-12-07T11:38:07;1.42;;;0.45;;
19280;SDS011;9774;52.034;5.342;2022-12-07T11:40:37;5.15;;;0.75;;
19280;SDS011;9774;52.034;5.342;2022-12-07T11:43:09;2.15;;;0.28;;
19280;SDS011;9774;52.034;5.342;2022-12-07T11:45:44;1.73;;;0.40;;
19280;SDS011;9774;52.034;5.342;2022-12-07T11:48:20;1.58;;;0.30;;
19280;SDS011;9774;52.034;5.342;2022-12-07T11:50:56;2.72;;;0.60;;
19280;SDS011;9774;52.034;5.342;2022-12-07T11:53:26;1.73;;;0.35;;
19280;SDS011;9774;52.034;5.342;2022-12-07T11:55:57;3.35;;;0.45;;
19280;SDS011;9774;52.034;5.342;2022-12-07T12:01:18;2.47;;;0.50;;
19280;SDS011;9774;52.034;5.342;2022-12-07T12:04:11;0.50;;;0.30;;
19280;SDS011;9774;52.034;5.342;2022-12-07T12:06:49;5.47;;;0.80;;
19280;SDS011;9774;52.034;5.342;2022-12-07T12:09:17;2.10;;;0.32;;
19280;SDS011;9774;52.034;5.342;2022-12-07T12:11:54;1.23;;;0.45;;
19280;SDS011;9774;52.034;5.342;2022-12-07T12:14:38;1.45;;;0.22;;
19280;SDS011;9774;52.034;5.342;2022-12-07T12:17:25;1.95;;;0.50;;
19280;SDS011;9774;52.034;5.342;2022-12-07T12:20:15;0.65;;;0.40;;
19280;SDS011;9774;52.034;5.342;2022-12-07T12:22:47;2.40;;;0.50;;
19280;SDS011;9774;52.034;5.342;2022-12-07T12:25:20;2.97;;;0.47;;
19280;SDS011;9774;52.034;5.342;2022-12-07T12:27:50;1.08;;;0.30;;
19280;SDS011;9774;52.034;5.342;2022-12-07T12:30:31;3.42;;;0.70;;
19280;SDS011;9774;52.034;5.342;2022-12-07T12:33:03;2.75;;;0.50;;
19280;SDS011;9774;52.034;5.342;2022-12-07T12:35:39;0.40;;;0.30;;
19280;SDS011;9774;52.034;5.342;2022-12-07T12:41:00;3.28;;;0.50;;
19280;SDS011;9774;52.034;5.342;2022-12-07T12:49:32;2.92;;;0.40;;
19280;SDS011;9774;52.034;5.342;2022-12-07T12:55:42;1.60;;;0.60;;
19280;SDS011;9774;52.034;5.342;2022-12-07T12:58:34;0.52;;;0.28;;
19280;SDS011;9774;52.034;5.342;2022-12-07T13:04:16;2.45;;;0.57;;
19280;SDS011;9774;52.034;5.342;2022-12-07T13:07:10;2.60;;;0.60;;
19280;SDS011;9774;52.034;5.342;2022-12-07T13:09:39;2.10;;;0.70;;
19280;SDS011;9774;52.034;5.342;2022-12-07T13:12:13;3.70;;;0.82;;
19280;SDS011;9774;52.034;5.342;2022-12-07T13:14:52;3.15;;;0.85;;
19280;SDS011;9774;52.034;5.342;2022-12-07T13:23:16;1.80;;;0.47;;
19280;SDS011;9774;52.034;5.342;2022-12-07T13:25:51;3.28;;;0.70;;
19280;SDS011;9774;52.034;5.342;2022-12-07T13:28:23;3.63;;;0.60;;
19280;SDS011;9774;52.034;5.342;2022-12-07T13:31:00;0.88;;;0.45;;
19280;SDS011;9774;52.034;5.342;2022-12-07T13:33:35;0.85;;;0.40;;
19280;SDS011;9774;52.034;5.342;2022-12-07T13:36:02;3.78;;;0.50;;
19280;SDS011;9774;52.034;5.342;2022-12-07T13:38:31;1.75;;;0.88;;
19280;SDS011;9774;52.034;5.342;2022-12-07T13:41:03;2.50;;;0.40;;
19280;SDS011;9774;52.034;5.342;2022-12-07T13:43:43;3.50;;;0.57;;
19280;SDS011;9774;52.034;5.342;2022-12-07T13:46:12;1.75;;;0.50;;
19280;SDS011;9774;52.034;5.342;2022-12-07T13:48:43;1.77;;;0.70;;
19280;SDS011;9774;52.034;5.342;2022-12-07T13:51:20;1.35;;;0.55;;
19280;SDS011;9774;52.034;5.342;2022-12-07T13:53:49;1.40;;;1.00;;
19280;SDS011;9774;52.034;5.342;2022-12-07T13:56:17;3.80;;;0.90;;
19280;SDS011;9774;52.034;5.342;2022-12-07T13:58:48;1.33;;;0.95;;
19280;SDS011;9774;52.034;5.342;2022-12-07T14:01:15;3.40;;;0.63;;
19280;SDS011;9774;52.034;5.342;2022-12-07T14:03:43;3.20;;;0.63;;
19280;SDS011;9774;52.034;5.342;2022-12-07T14:06:16;1.45;;;0.55;;
19280;SDS011;9774;52.034;5.342;2022-12-07T14:09:05;0.85;;;0.40;;
19280;SDS011;9774;52.034;5.342;2022-12-07T14:11:33;1.38;;;0.60;;
19280;SDS011;9774;52.034;5.342;2022-12-07T14:14:03;2.60;;;0.90;;
19280;SDS011;9774;52.034;5.342;2022-12-07T14:16:31;4.32;;;0.85;;
19280;SDS011;9774;52.034;5.342;2022-12-07T14:19:03;1.25;;;0.32;;
19280;SDS011;9774;52.034;5.342;2022-12-07T14:21:32;3.75;;;0.47;;
19280;SDS011;9774;52.034;5.342;2022-12-07T14:24:16;3.25;;;0.50;;
19280;SDS011;9774;52.034;5.342;2022-12-07T14:26:46;1.77;;;0.50;;
19280;SDS011;9774;52.034;5.342;2022-12-07T14:32:16;3.20;;;0.40;;
19280;SDS011;9774;52.034;5.342;2022-12-07T14:34:54;1.05;;;0.40;;
19280;SDS011;9774;52.034;5.342;2022-12-07T14:37:23;1.35;;;0.38;;
19280;SDS011;9774;52.034;5.342;2022-12-07T14:39:50;0.75;;;0.45;;
19280;SDS011;9774;52.034;5.342;2022-12-07T14:42:17;0.95;;;0.30;;
19280;SDS011;9774;52.034;5.342;2022-12-07T14:44:47;1.23;;;0.30;;
19280;SDS011;9774;52.034;5.342;2022-12-07T14:47:14;1.83;;;0.60;;
19280;SDS011;9774;52.034;5.342;2022-12-07T14:49:41;0.52;;;0.25;;
19280;SDS011;9774;52.034;5.342;2022-12-07T14:52:11;0.40;;;0.20;;
19280;SDS011;9774;52.034;5.342;2022-12-07T14:54:42;0.88;;;0.10;;
19280;SDS011;9774;52.034;5.342;2022-12-07T14:57:10;1.17;;;0.20;;
19280;SDS011;9774;52.034;5.342;2022-12-07T14:59:38;2.05;;;0.25;;
19280;SDS011;9774;52.034;5.342;2022-12-07T15:02:08;0.60;;;0.25;;
19280;SDS011;9774;52.034;5.342;2022-12-07T15:04:37;2.08;;;0.30;;
19280;SDS011;9774;52.034;5.342;2022-12-07T15:07:05;0.73;;;0.10;;
19280;SDS011;9774;52.034;5.342;2022-12-07T15:09:36;1.20;;;0.30;;
19280;SDS011;9774;52.034;5.342;2022-12-07T15:12:03;2.40;;;0.30;;
19280;SDS011;9774;52.034;5.342;2022-12-07T15:14:31;1.63;;;0.10;;
19280;SDS011;9774;52.034;5.342;2022-12-07T15:16:58;0.60;;;0.32;;
19280;SDS011;9774;52.034;5.342;2022-12-07T15:19:27;1.60;;;0.20;;
19280;SDS011;9774;52.034;5.342;2022-12-07T15:21:54;1.17;;;0.52;;
19280;SDS011;9774;52.034;5.342;2022-12-07T15:24:22;2.20;;;0.68;;
19280;SDS011;9774;52.034;5.342;2022-12-07T15:26:50;0.82;;;0.50;;
19280;SDS011;9774;52.034;5.342;2022-12-07T15:29:17;1.98;;;0.45;;
19280;SDS011;9774;52.034;5.342;2022-12-07T15:31:44;0.88;;;0.25;;
19280;SDS011;9774;52.034;5.342;2022-12-07T15:34:13;1.15;;;0.32;;
19280;SDS011;9774;52.034;5.342;2022-12-07T15:36:42;1.13;;;0.30;;
19280;SDS011;9774;52.034;5.342;2022-12-07T15:39:10;1.00;;;0.40;;
19280;SDS011;9774;52.034;5.342;2022-12-07T15:41:37;0.43;;;0.20;;
19280;SDS011;9774;52.034;5.342;2022-12-07T15:44:05;0.98;;;0.30;;
19280;SDS011;9774;52.034;5.342;2022-12-07T15:46:50;1.15;;;0.40;;
19280;SDS011;9774;52.034;5.342;2022-12-07T15:49:18;0.45;;;0.30;;
19280;SDS011;9774;52.034;5.342;2022-12-07T15:51:47;1.00;;;0.40;;
19280;SDS011;9774;52.034;5.342;2022-12-07T15:54:16;0.82;;;0.57;;
19280;SDS011;9774;52.034;5.342;2022-12-07T15:56:46;1.17;;;0.50;;